Flight Track Log - Related Links

Times and Time Zones

All times are in EDT time to prevent confusion due to time zone crossing. See the UAL1034 flight status page for this flight to view local times or setup timezone preferences in your user account.


Time Position Orientation Groundspeed Altitude Reporting Facility
EDT Latitude Longitude Course Direction KTS MPH feet Rate Location/Type
Tue 04:31:14 PM 29.9532 -95.3347 157° South 190 219 900  Level FlightAware ADS-B
Tue 04:31:24 PM 29.9476 -95.3263 128° Southeast 192 221 1,200 1,500 Climbing FlightAware ADS-B
Tue 04:31:42 PM 29.9379 -95.3106 125° Southeast 207 238 1,600 1,355 Climbing FlightAware ADS-B
Tue 04:31:55 PM 29.9301 -95.2984 126° Southeast 221 254 1,900 1,500 Climbing FlightAware ADS-B
Tue 04:32:10 PM 29.9207 -95.2836 126° Southeast 235 270 2,300 2,143 Climbing FlightAware ADS-B
Tue 04:32:23 PM 29.9124 -95.2707 127° Southeast 236 272 2,900 2,690 Climbing FlightAware ADS-B
Tue 04:32:39 PM 29.9016 -95.2544 127° Southeast 241 277 3,600 2,400 Climbing FlightAware ADS-B
Tue 04:32:53 PM 29.8920 -95.2397 127° Southeast 248 285 4,100 2,069 Climbing FlightAware ADS-B
Tue 04:33:08 PM 29.8813 -95.2235 127° Southeast 255 293 4,600 2,250 Climbing FlightAware ADS-B
Tue 04:33:25 PM 29.8684 -95.2047 131° Southeast 258 297 5,300 2,667 Climbing FlightAware ADS-B
Tue 04:33:35 PM 29.8599 -95.1951 138° Southeast 260 299 5,800 3,000 Climbing FlightAware ADS-B
Tue 04:33:43 PM 29.8521 -95.1884 145° Southeast 256 295 6,200 2,769 Climbing FlightAware ADS-B
Tue 04:33:48 PM 29.8471 -95.1848 148° Southeast 255 293 6,400 2,857 Climbing FlightAware ADS-B
Tue 04:34:04 PM 29.8303 -95.1747 153° Southeast 254 292 7,200 2,400 Climbing FlightAware ADS-B
Tue 04:34:13 PM 29.8215 -95.1700 155° Southeast 260 299 7,400 1,500 Climbing FlightAware ADS-B
Tue 04:34:28 PM 29.8045 -95.1612 156° South 274 315 7,800 1,800 Climbing FlightAware ADS-B
Tue 04:34:43 PM 29.7865 -95.1516 155° Southeast 284 327 8,300 1,950 Climbing FlightAware ADS-B
Tue 04:35:08 PM 29.7561 -95.1351 154° Southeast 300 345 9,100 2,308 Climbing FlightAware ADS-B
Tue 04:35:22 PM 29.7375 -95.1246 154° Southeast 301 346 9,800 1,901 Climbing FlightAware ADS-B
Tue 04:36:49 PM 29.6172 -95.0580 154° Southeast 357 411 12,300 1,780 Climbing FlightAware ADS-B
Tue 04:37:20 PM 29.5700 -95.0324 155° Southeast 371 427 13,300 1,800 Climbing FlightAware ADS-B
Tue 04:38:09 PM 29.4908 -94.9887 154° Southeast 395 455 14,700 1,950 Climbing FlightAware ADS-B
Tue 04:38:40 PM 29.4392 -94.9609 155° Southeast 399 459 15,900 2,226 Climbing FlightAware ADS-B
Tue 04:39:11 PM 29.3888 -94.9334 155° Southeast 403 464 17,000 2,063 Climbing FlightAware ADS-B
Tue 04:39:44 PM 29.3314 -94.9018 154° Southeast 406 467 18,100 1,781 Climbing FlightAware ADS-B
Tue 04:40:15 PM 29.2788 -94.8730 154° Southeast 420 483 18,900 1,600 Climbing FlightAware ADS-B
Tue 04:40:29 PM 29.2538 -94.8572 151° Southeast 423 487 19,300 1,846 Climbing FlightAware ADS-B
Tue 04:40:41 PM 29.2353 -94.8430 146° Southeast 426 490 19,700 1,857 Climbing FlightAware ADS-B
Tue 04:41:11 PM 29.1873 -94.8026 144° Southeast 427 491 20,600 1,700 Climbing FlightAware ADS-B
Tue 04:41:41 PM 29.1389 -94.7617 144° Southeast 432 497 21,400 1,700 Climbing FlightAware ADS-B
Tue 04:42:11 PM 29.0897 -94.7201 144° Southeast 436 502 22,300 1,619 Climbing FlightAware ADS-B
Tue 04:42:44 PM 29.0364 -94.6752 144° Southeast 439 505 23,100 1,429 Climbing FlightAware ADS-B
Tue 04:43:14 PM 28.9866 -94.6332 144° Southeast 443 510 23,800 1,377 Climbing FlightAware ADS-B
Tue 04:43:45 PM 28.9363 -94.5909 144° Southeast 448 516 24,500 1,333 Climbing FlightAware ADS-B
Tue 04:44:17 PM 28.8820 -94.5452 144° Southeast 453 521 25,200 1,258 Climbing FlightAware ADS-B
Tue 04:44:47 PM 28.8305 -94.5021 144° Southeast 457 526 25,800 1,099 Climbing FlightAware ADS-B
Tue 04:45:28 PM 28.7610 -94.4440 144° Southeast 462 532 26,500 1,091 Climbing FlightAware ADS-B
Tue 04:45:53 PM 28.7172 -94.4072 144° Southeast 467 537 27,000 493 Climbing FlightAware ADS-B
Tue 04:46:41 PM 28.6470 -94.3470 143° Southeast 467 537 27,100 915 Climbing FlightAware ADS-B
Tue 04:46:52 PM 28.6124 -94.3198 145° Southeast 476 548 27,900 1,857 Climbing FlightAware ADS-B
Tue 04:47:23 PM 28.5576 -94.2742 144° Southeast 479 551 28,400 1,220 Climbing FlightAware ADS-B
Tue 04:48:55 PM 28.3944 -94.1386 144° Southeast 474 545 30,400 1,175 Climbing FlightAware ADS-B
Tue 04:49:46 PM 28.3192 -94.0750 144° Southeast 471 542 31,200 1,062 Climbing Houston Center
Tue 04:50:48 PM 28.2122 -93.9878 144° Southeast 473 544 32,400 1,161 Climbing Houston Center
Tue 04:51:50 PM 28.1086 -93.9014 144° Southeast 465 535 33,600 1,161 Climbing Houston Center
Tue 04:52:52 PM 27.9836 -93.8014 145° Southeast 460 529 34,800 672 Climbing Houston Center
Tue 04:53:55 PM 27.8822 -93.7164 143° Southeast 454 522 35,000 96 Climbing Houston Center
Tue 04:54:57 PM 27.7792 -93.6322 144° Southeast 456 525 35,000  Level Houston Center
Tue 04:55:59 PM 27.6764 -93.5497 145° Southeast 455 524 35,000  Level Houston Center
Tue 04:57:00 PM 27.5753 -93.4661 144° Southeast 452 520 35,000  Level Houston Center
Tue 04:58:03 PM 27.4733 -93.3797 143° Southeast 457 526 35,000  Level Houston Center
Tue 04:59:05 PM 27.3492 -93.2817 145° Southeast 454 522 35,000  Level Houston Center
Tue 05:00:06 PM 27.2467 -93.2003 145° Southeast 454 522 35,000  Level Houston Center
Tue 05:02:00 PM 27.0570 -93.0385 144° Southeast  Level FlightAware Approximate
Tue 05:09:00 PM 26.3156 -92.5144 149° Southeast  Level FlightAware Approximate
Tue 05:10:00 PM 26.2075 -92.4437 150° Southeast  Level FlightAware Approximate
Tue 05:11:00 PM 26.0993 -92.3730 150° Southeast  Level FlightAware Approximate
Tue 05:12:00 PM 25.9911 -92.3026 150° Southeast  Level FlightAware Approximate
Tue 05:13:00 PM 25.8829 -92.2322 150° Southeast  Level FlightAware Approximate
Tue 05:14:00 PM 25.7749 -92.1615 149° Southeast  Level FlightAware Approximate
Tue 05:15:00 PM 25.6670 -92.0907 149° Southeast  Level FlightAware Approximate
Tue 05:16:00 PM 25.5591 -92.0199 149° Southeast  Level FlightAware Approximate
Tue 05:17:00 PM 25.4511 -91.9493 149° Southeast  Level FlightAware Approximate
Tue 05:18:00 PM 25.3431 -91.8788 149° Southeast  Level FlightAware Approximate
Tue 05:19:00 PM 25.2351 -91.8084 149° Southeast  Level FlightAware Approximate
Tue 05:20:00 PM 25.1271 -91.7382 150° Southeast  Level FlightAware Approximate
Tue 05:21:00 PM 25.0190 -91.6680 150° Southeast  Level FlightAware Approximate
Tue 05:22:00 PM 24.9108 -91.5980 150° Southeast  Level FlightAware Approximate
Tue 05:23:00 PM 24.8027 -91.5282 150° Southeast  Level FlightAware Approximate
Tue 05:24:00 PM 24.6945 -91.4584 150° Southeast  Level FlightAware Approximate
Tue 05:25:00 PM 24.5863 -91.3887 150° Southeast  Level FlightAware Approximate
Tue 05:26:00 PM 24.4820 -91.3135 135° Southeast  Level FlightAware Approximate
Tue 05:27:00 PM 24.3935 -91.2161 135° Southeast  Level FlightAware Approximate
Tue 05:28:00 PM 24.3044 -91.1192 136° Southeast  Level FlightAware Approximate
Tue 05:29:00 PM 24.2145 -91.0234 136° Southeast  Level FlightAware Approximate
Tue 05:30:00 PM 24.1244 -90.9278 136° Southeast  Level FlightAware Approximate
Tue 05:31:00 PM 24.0343 -90.8323 136° Southeast  Level FlightAware Approximate
Tue 05:31:42 PM 23.9240 -90.8130 136° Southeast 439 505 35,000  Level FlightAware ADS-B
Tue 05:32:00 PM 23.9442 -90.7370 136° Southeast  Level FlightAware Approximate
Tue 05:32:25 PM 23.8680 -90.7550 137° Southeast 437 503 35,000  Level FlightAware ADS-B
Tue 05:33:01 PM 23.8240 -90.7080 136° Southeast 437 503 35,000  Level FlightAware ADS-B
Tue 05:33:37 PM 23.7790 -90.6610 136° Southeast 437 503 35,000  Level FlightAware ADS-B
Tue 05:34:11 PM 23.7080 -90.5900 138° Southeast 431 496 35,000  Level FlightAware ADS-B
Tue 05:35:01 PM 23.6390 -90.5230 138° Southeast 431 496 35,000  Level FlightAware ADS-B
Tue 05:35:41 PM 23.5790 -90.4650 138° Southeast 430 495 35,000  Level FlightAware ADS-B
Tue 05:36:16 PM 23.5200 -90.4090 139° Southeast 430 495 35,000  Level FlightAware ADS-B
Tue 05:36:52 PM 23.4710 -90.3580 136° Southeast 431 496 35,000  Level FlightAware ADS-B
Tue 05:37:30 PM 23.4140 -90.3010 137° Southeast 432 497 35,000  Level FlightAware ADS-B
Tue 05:38:04 PM 23.3620 -90.2480 137° Southeast 433 498 35,000  Level FlightAware ADS-B
Tue 05:38:39 PM 23.3120 -90.1990 138° Southeast 433 498 35,000  Level FlightAware ADS-B
Tue 05:39:14 PM 23.2580 -90.1480 139° Southeast 432 497 35,000  Level FlightAware ADS-B
Tue 05:39:28 PM 23.2330 -90.1350 154° Southeast 436 502 35,000  Level FlightAware ADS-B
Tue 05:40:19 PM 23.1420 -90.0990 160° South 440 506 35,000  Level FlightAware ADS-B
Tue 05:40:53 PM 23.0680 -90.0760 164° South 440 506 35,000  Level FlightAware ADS-B
Tue 05:41:26 PM 23.0010 -90.0550 164° South 439 505 35,000  Level FlightAware ADS-B
Tue 05:42:02 PM 22.9340 -90.0250 158° South 437 503 35,000  Level FlightAware ADS-B
Tue 05:42:38 PM 22.8750 -89.9860 149° Southeast 432 497 35,000  Level FlightAware ADS-B
Tue 05:43:10 PM 22.8190 -89.9490 149° Southeast 430 495 35,000  Level FlightAware ADS-B
Tue 05:43:46 PM 22.7610 -89.9080 147° Southeast 428 493 35,000  Level FlightAware ADS-B
Tue 05:44:16 PM 22.7090 -89.8700 146° Southeast 428 493 35,000  Level FlightAware ADS-B
Tue 05:44:58 PM 22.6420 -89.8150 143° Southeast 430 495 35,000  Level FlightAware ADS-B
Tue 05:45:32 PM 22.5890 -89.7720 143° Southeast 431 496 35,000  Level FlightAware ADS-B
Tue 05:46:07 PM 22.5340 -89.7260 142° Southeast 433 498 35,000  Level FlightAware ADS-B
Tue 05:46:40 PM 22.4850 -89.6760 137° Southeast 432 497 35,000  Level FlightAware ADS-B
Tue 05:47:16 PM 22.4330 -89.6200 135° Southeast 434 499 35,000  Level FlightAware ADS-B
Tue 05:47:52 PM 22.3820 -89.5660 136° Southeast 435 501 35,000  Level FlightAware ADS-B
Tue 05:48:22 PM 22.3380 -89.5210 137° Southeast 437 503 35,000  Level FlightAware ADS-B
Tue 05:48:48 PM 22.3020 -89.4800 133° Southeast 445 512 35,000  Level FlightAware ADS-B
Tue 05:49:22 PM 22.2620 -89.4180 125° Southeast 446 513 35,000  Level FlightAware ADS-B
Tue 05:49:52 PM 22.2270 -89.3630 124° Southeast 446 513 35,000  Level FlightAware ADS-B
Tue 05:50:30 PM 22.1820 -89.2940 125° Southeast 441 507 35,000  Level FlightAware ADS-B
Tue 05:51:06 PM 22.1420 -89.2270 123° Southeast 438 504 35,000  Level FlightAware ADS-B
Tue 05:51:42 PM 22.1060 -89.1590 120° Southeast 438 504 35,000  Level FlightAware ADS-B
Tue 05:52:19 PM 22.0710 -89.0900 119° Southeast 440 506 35,000  Level FlightAware ADS-B
Tue 05:52:50 PM 22.0430 -89.0280 116° Southeast 440 506 35,000  Level FlightAware ADS-B
Tue 05:53:27 PM 22.0110 -88.9580 116° Southeast 440 506 35,000  Level FlightAware ADS-B
Tue 05:54:04 PM 21.9780 -88.8810 115° Southeast 441 507 35,000  Level FlightAware ADS-B
Tue 05:54:40 PM 21.9450 -88.8100 117° Southeast 441 507 35,000  Level FlightAware ADS-B
Tue 05:55:11 PM 21.9160 -88.7510 118° Southeast 442 509 35,000  Level FlightAware ADS-B
Tue 05:55:47 PM 21.8810 -88.6790 118° Southeast 447 514 35,000  Level FlightAware ADS-B
Tue 05:56:23 PM 21.8530 -88.6050 112° Southeast 455 524 35,000  Level FlightAware ADS-B
Tue 05:56:54 PM 21.8360 -88.5380 105° East 457 526 35,000  Level FlightAware ADS-B
Tue 05:57:32 PM 21.8250 -88.4520 98° East 453 521 35,000  Level FlightAware ADS-B
Tue 05:58:09 PM 21.8160 -88.3700 97° East 452 520 35,000  Level FlightAware ADS-B
Tue 05:58:45 PM 21.8050 -88.2880 98° East 452 520 35,000  Level FlightAware ADS-B
Tue 05:59:05 PM 21.7930 -88.2490 108° East 447 514 35,000  Level FlightAware ADS-B
Tue 05:59:33 PM 21.7570 -88.1980 127° Southeast 440 506 35,000  Level FlightAware ADS-B
Tue 06:00:05 PM 21.7050 -88.1540 142° Southeast 442 509 35,000  Level FlightAware ADS-B
Tue 06:00:40 PM 21.6500 -88.1060 141° Southeast 440 506 35,000  Level FlightAware ADS-B
Tue 06:01:17 PM 21.5910 -88.0530 140° Southeast 438 504 35,000  Level FlightAware ADS-B
Tue 06:01:53 PM 21.5360 -88.0050 141° Southeast 438 504 35,000  Level FlightAware ADS-B
Tue 06:02:29 PM 21.4780 -87.9550 141° Southeast 437 503 35,000  Level FlightAware ADS-B
Tue 06:02:59 PM 21.4300 -87.9140 142° Southeast 439 505 35,000  Level FlightAware ADS-B
Tue 06:03:37 PM 21.3700 -87.8620 141° Southeast 440 506 35,000  Level FlightAware ADS-B
Tue 06:04:13 PM 21.3120 -87.8130 142° Southeast 445 512 35,000  Level FlightAware ADS-B
Tue 06:04:47 PM 21.2570 -87.7650 141° Southeast 449 517 35,000  Level FlightAware ADS-B
Tue 06:05:23 PM 21.2000 -87.7150 141° Southeast 452 520 35,000  Level FlightAware ADS-B
Tue 06:05:59 PM 21.1410 -87.6640 141° Southeast 452 520 35,000  Level FlightAware ADS-B
Tue 06:06:29 PM 21.0910 -87.6210 141° Southeast 452 520 35,000  Level FlightAware ADS-B
Tue 06:07:07 PM 21.0300 -87.5690 141° Southeast 451 519 35,000  Level FlightAware ADS-B
Tue 06:07:39 PM 20.9780 -87.5230 140° Southeast 450 518 35,000  Level FlightAware ADS-B
Tue 06:08:15 PM 20.9190 -87.4730 142° Southeast 447 514 35,000  Level FlightAware ADS-B
Tue 06:08:53 PM 20.8580 -87.4200 141° Southeast 445 512 35,000  Level FlightAware ADS-B
Tue 06:09:29 PM 20.7990 -87.3710 142° Southeast 445 512 35,000  Level FlightAware ADS-B
Tue 06:09:57 PM 20.7550 -87.3330 141° Southeast 445 512 35,000  Level FlightAware ADS-B
Tue 06:10:43 PM 20.6810 -87.2690 141° Southeast 444 511 35,000  Level FlightAware ADS-B
Tue 06:11:19 PM 20.6230 -87.2190 141° Southeast 444 511 35,000  Level FlightAware ADS-B
Tue 06:11:54 PM 20.5680 -87.1730 142° Southeast 445 512 35,000  Level FlightAware ADS-B
Tue 06:12:28 PM 20.5130 -87.1260 141° Southeast 445 512 35,000  Level FlightAware ADS-B
Tue 06:13:04 PM 20.4550 -87.0750 141° Southeast 445 512 35,000  Level FlightAware ADS-B
Tue 06:13:36 PM 20.4040 -87.0320 142° Southeast 446 513 35,000  Level FlightAware ADS-B
Tue 06:14:12 PM 20.3460 -86.9830 142° Southeast 446 513 35,000  Level FlightAware ADS-B
Tue 06:14:48 PM 20.2880 -86.9330 141° Southeast 447 514 35,000  Level FlightAware ADS-B
Tue 06:15:24 PM 20.2270 -86.8820 142° Southeast 447 514 35,000  Level FlightAware ADS-B
Tue 06:16:00 PM 20.1710 -86.8350 142° Southeast 448 516 35,000  Level FlightAware ADS-B
Tue 06:16:32 PM 20.1180 -86.7890 141° Southeast 448 516 35,000  Level FlightAware ADS-B
Tue 06:17:08 PM 20.0600 -86.7400 142° Southeast 450 518 35,000  Level FlightAware ADS-B
Tue 06:17:46 PM 19.9980 -86.6870 141° Southeast 451 519 35,000  Level FlightAware ADS-B
Tue 06:18:22 PM 19.9390 -86.6380 142° Southeast 451 519 35,000  Level FlightAware ADS-B
Tue 06:18:58 PM 19.8800 -86.5880 141° Southeast 452 520 35,000  Level FlightAware ADS-B
Tue 06:19:30 PM 19.8270 -86.5430 141° Southeast 450 518 35,000  Level FlightAware ADS-B
Tue 06:20:06 PM 19.7680 -86.4930 141° Southeast 450 518 35,000  Level FlightAware ADS-B
Tue 06:20:48 PM 19.7110 -86.4440 141° Southeast 450 518 35,000  Level FlightAware ADS-B
Tue 06:21:22 PM 19.6450 -86.3900 142° Southeast 449 517 35,000  Level FlightAware ADS-B
Tue 06:21:56 PM 19.5860 -86.3480 146° Southeast 445 512 35,000  Level FlightAware ADS-B
Tue 06:22:32 PM 19.5200 -86.3080 150° Southeast 445 512 35,000  Level FlightAware ADS-B
Tue 06:23:08 PM 19.4570 -86.2690 150° Southeast 444 511 35,000  Level FlightAware ADS-B
Tue 06:23:59 PM 19.3720 -86.2170 150° Southeast 444 511 35,000  Level FlightAware ADS-B
Tue 06:24:35 PM 19.3170 -86.1840 150° Southeast 444 511 35,000  Level FlightAware ADS-B
Tue 06:25:12 PM 19.2610 -86.1500 150° Southeast 444 511 35,000  Level FlightAware ADS-B
Tue 06:25:50 PM 19.1690 -86.0940 150° Southeast 445 512 35,000  Level FlightAware ADS-B
Tue 06:26:26 PM 19.1030 -86.0540 150° Southeast 444 511 35,000  Level FlightAware ADS-B
Tue 06:26:58 PM 19.0460 -86.0200 151° Southeast 445 512 35,000  Level FlightAware ADS-B
Tue 06:27:34 PM 18.9800 -85.9800 150° Southeast 446 513 35,000  Level FlightAware ADS-B
Tue 06:28:10 PM 18.9180 -85.9420 150° Southeast 445 512 35,000  Level FlightAware ADS-B
Tue 06:28:52 PM 18.8420 -85.8960 150° Southeast 445 512 35,000  Level FlightAware ADS-B
Tue 06:29:28 PM 18.7780 -85.8630 154° Southeast 442 509 35,000  Level FlightAware ADS-B
Tue 06:30:01 PM 18.7240 -85.8360 155° Southeast 442 509 35,000  Level FlightAware ADS-B
Tue 06:30:37 PM 18.6670 -85.8080 155° Southeast 442 509 35,000  Level FlightAware ADS-B
Tue 06:31:13 PM 18.6110 -85.7810 155° Southeast 442 509 35,000  Level FlightAware ADS-B
Tue 06:31:49 PM 18.5540 -85.7530 155° Southeast 442 509 35,000  Level FlightAware ADS-B
Tue 06:32:25 PM 18.4970 -85.7250 155° Southeast 442 509 35,000  Level FlightAware ADS-B
Tue 06:33:01 PM 18.4410 -85.6970 155° Southeast 442 509 35,000  Level FlightAware ADS-B
Tue 06:33:37 PM 18.3840 -85.6690 155° Southeast 442 509 35,000  Level FlightAware ADS-B
Tue 06:34:13 PM 18.3270 -85.6410 155° Southeast 442 509 35,000  Level FlightAware ADS-B
Tue 06:34:50 PM 18.2690 -85.6120 155° Southeast 442 509 35,000  Level FlightAware ADS-B
Tue 06:35:26 PM 18.2120 -85.5850 156° South 442 509 35,000  Level FlightAware ADS-B
Tue 06:36:02 PM 18.1550 -85.5570 155° Southeast 442 509 35,000  Level FlightAware ADS-B
Tue 06:36:38 PM 18.0990 -85.5290 155° Southeast 442 509 35,000  Level FlightAware ADS-B
Tue 06:37:14 PM 18.0420 -85.5010 155° Southeast 442 509 35,000  Level FlightAware ADS-B
Tue 06:37:51 PM 17.9840 -85.4730 155° Southeast 442 509 35,000  Level FlightAware ADS-B
Tue 06:38:27 PM 17.9270 -85.4450 155° Southeast 442 509 35,000  Level FlightAware ADS-B
Tue 06:39:03 PM 17.8700 -85.4170 155° Southeast 442 509 35,000 30 Level FlightAware ADS-B
Tue 06:41:00 PM 17.6730 -85.2752 146° Southeast  Level Estimated
Tue 06:42:00 PM 17.5720 -85.2026 146° Southeast  Level Estimated
Tue 06:43:00 PM 17.4709 -85.1301 146° Southeast  Level Estimated
Tue 06:44:00 PM 17.3699 -85.0577 146° Southeast  Level Estimated
Tue 06:45:00 PM 17.2687 -84.9853 146° Southeast  Level Estimated
Tue 06:46:00 PM 17.1676 -84.9131 146° Southeast  Level Estimated
Tue 06:47:00 PM 17.0664 -84.8409 146° Southeast  Level Estimated
Tue 06:48:00 PM 16.9652 -84.7688 146° Southeast  Level Estimated
Tue 06:49:00 PM 16.8640 -84.6967 146° Southeast  Level Estimated
Tue 06:50:00 PM 16.7628 -84.6248 146° Southeast  Level Estimated
Tue 06:51:00 PM 16.6615 -84.5529 146° Southeast  Level Estimated
Tue 06:52:00 PM 16.5602 -84.4811 146° Southeast  Level Estimated
Tue 06:53:00 PM 16.4589 -84.4094 146° Southeast  Level Estimated
Tue 06:54:00 PM 16.3576 -84.3377 146° Southeast  Level Estimated
Tue 06:55:00 PM 16.2562 -84.2661 146° Southeast  Level Estimated
Tue 06:56:00 PM 16.1548 -84.1946 146° Southeast  Level Estimated
Tue 06:57:00 PM 16.0534 -84.1232 146° Southeast  Level Estimated
Tue 06:58:00 PM 15.9520 -84.0518 146° Southeast  Level Estimated
Tue 06:59:00 PM 15.8505 -83.9806 146° Southeast  Level Estimated
Tue 07:00:00 PM 15.7490 -83.9093 146° Southeast  Level Estimated
Tue 07:01:00 PM 15.6475 -83.8382 146° Southeast  Level Estimated
Tue 07:02:00 PM 15.5460 -83.7671 146° Southeast  Level Estimated
Tue 07:03:00 PM 15.4444 -83.6961 146° Southeast  Level Estimated
Tue 07:04:00 PM 15.3428 -83.6252 146° Southeast  Level Estimated
Tue 07:05:00 PM 15.2412 -83.5544 146° Southeast  Level Estimated
Tue 07:06:00 PM 15.1396 -83.4836 146° Southeast  Level Estimated
Tue 07:07:00 PM 15.0380 -83.4128 146° Southeast  Level Estimated
Tue 07:08:00 PM 14.9363 -83.3422 146° Southeast  Level Estimated
Tue 07:09:00 PM 14.8346 -83.2716 146° Southeast  Level Estimated
Tue 07:10:00 PM 14.7329 -83.2010 146° Southeast  Level Estimated
Tue 07:11:00 PM 14.6312 -83.1306 146° Southeast  Level Estimated
Tue 07:12:00 PM 14.5294 -83.0602 146° Southeast  Level Estimated
Tue 07:13:00 PM 14.4277 -82.9899 146° Southeast  Level Estimated
Tue 07:14:00 PM 14.3259 -82.9196 146° Southeast  Level Estimated
Tue 07:15:00 PM 14.2240 -82.8494 146° Southeast  Level Estimated
Tue 07:16:00 PM 14.1222 -82.7792 146° Southeast  Level Estimated
Tue 07:17:00 PM 14.0204 -82.7092 146° Southeast  Level Estimated
Tue 07:18:00 PM 13.9185 -82.6391 146° Southeast  Level Estimated
Tue 07:19:00 PM 13.8166 -82.5692 146° Southeast  Level Estimated
Tue 07:20:00 PM 13.7147 -82.4993 146° Southeast  Level Estimated
Tue 07:21:00 PM 13.6128 -82.4295 146° Southeast  Level Estimated
Tue 07:22:00 PM 13.5108 -82.3597 146° Southeast  Level Estimated
Tue 07:23:00 PM 13.4088 -82.2900 146° Southeast  Level Estimated
Tue 07:24:00 PM 13.3069 -82.2203 146° Southeast  Level Estimated
Tue 07:25:00 PM 13.2049 -82.1507 146° Southeast  Level Estimated
Tue 07:26:00 PM 13.1028 -82.0812 146° Southeast  Level Estimated
Tue 07:27:00 PM 13.0008 -82.0117 146° Southeast  Level Estimated
Tue 07:28:00 PM 12.8987 -81.9423 146° Southeast  Level Estimated
Tue 07:29:00 PM 12.7966 -81.8729 146° Southeast  Level Estimated
Tue 07:30:00 PM 12.6945 -81.8036 146° Southeast  Level Estimated
Tue 07:31:00 PM 12.5924 -81.7344 146° Southeast  Level Estimated
Tue 07:32:00 PM 12.4903 -81.6652 147° Southeast  Level Estimated
Tue 07:33:00 PM 12.3886 -81.5964 147° Southeast  Level Estimated
Tue 07:34:00 PM 12.2869 -81.5276 147° Southeast  Level Estimated
Tue 07:35:00 PM 12.1852 -81.4589 147° Southeast  Level Estimated
Tue 07:36:00 PM 12.0834 -81.3902 147° Southeast  Level Estimated
Tue 07:37:00 PM 11.9817 -81.3216 147° Southeast  Level Estimated
Tue 07:38:00 PM 11.8799 -81.2531 147° Southeast  Level Estimated
Tue 07:39:00 PM 11.7781 -81.1845 147° Southeast  Level Estimated
Tue 07:40:00 PM 11.6763 -81.1161 147° Southeast  Level Estimated
Tue 07:41:00 PM 11.5745 -81.0477 147° Southeast  Level Estimated
Tue 07:42:00 PM 11.4727 -80.9793 147° Southeast  Level Estimated
Tue 07:43:00 PM 11.3708 -80.9110 147° Southeast  Level Estimated
Tue 07:44:00 PM 11.2690 -80.8427 147° Southeast  Level Estimated
Tue 07:45:00 PM 11.1671 -80.7745 147° Southeast  Level Estimated
Tue 07:46:00 PM 11.0652 -80.7064 147° Southeast  Level Estimated
Tue 07:46:10 PM 10.6940 -80.6230 147° Southeast 452 520 37,000  Level FlightAware ADS-B
Tue 07:46:53 PM 10.6340 -80.5840 147° Southeast 452 520 37,000  Level FlightAware ADS-B
Tue 07:47:00 PM 10.9633 -80.6383 147° Southeast  Level Estimated
Tue 07:47:30 PM 10.5790 -80.5480 147° Southeast 452 520 37,000  Level FlightAware ADS-B
Tue 07:48:05 PM 10.4830 -80.5040 156° South 457 526 37,000  Level FlightAware ADS-B
Tue 07:48:38 PM 10.4320 -80.4750 151° Southeast 458 527 37,000  Level FlightAware ADS-B
Tue 07:49:14 PM 10.3750 -80.4430 151° Southeast 458 527 37,000  Level FlightAware ADS-B
Tue 07:49:50 PM 10.3180 -80.4110 151° Southeast 458 527 37,000  Level FlightAware ADS-B
Tue 07:50:26 PM 10.2620 -80.3790 151° Southeast 458 527 37,000  Level FlightAware ADS-B
Tue 07:51:02 PM 10.2050 -80.3470 151° Southeast 458 527 37,000  Level FlightAware ADS-B
Tue 07:51:38 PM 10.1480 -80.3150 151° Southeast 458 527 37,000 -4,517 Level FlightAware ADS-B
Tue 07:54:00 PM 9.8975 -80.1717 153° Southeast  Level FlightAware Approximate
Tue 07:54:00 PM 9.8040 -80.1870 153° Southeast 427 491 23,600  Level FlightAware ADS-B
Tue 07:54:45 PM 9.7170 -80.1610 164° South 417 480 21,900 -1,373 Descending FlightAware ADS-B
Tue 07:55:23 PM 9.6590 -80.1340 155° Southeast 423 487 21,700 -2,400 Descending FlightAware ADS-B
Tue 07:55:55 PM 9.6090 -80.0730 130° Southeast 417 480 19,100 -3,667 Descending FlightAware ADS-B
Tue 07:56:35 PM 9.5640 -80.0100 126° Southeast 418 481 17,300 -2,480 Descending FlightAware ADS-B
Tue 07:57:10 PM 9.5250 -79.9560 126° Southeast 407 468 16,000 -1,268 Descending FlightAware ADS-B
Tue 07:57:46 PM 9.4920 -79.9110 127° Southeast 404 465 15,800 -1,971 Descending FlightAware ADS-B
Tue 07:58:20 PM 9.4520 -79.8560 126° Southeast 382 440 13,700 -3,217 Descending FlightAware ADS-B
Tue 07:58:55 PM 9.4110 -79.8040 129° Southeast 378 435 12,100 -2,240 Descending FlightAware ADS-B
Tue 07:59:35 PM 9.3510 -79.7680 149° Southeast 352 405 10,900 -1,275 Descending FlightAware ADS-B
Tue 08:00:15 PM 9.2950 -79.7380 152° Southeast 329 379 10,400 -686 Descending FlightAware ADS-B
Tue 08:00:45 PM 9.2560 -79.7170 152° Southeast 298 343 10,100 -750 Descending FlightAware ADS-B
Tue 08:01:11 PM 9.2260 -79.7010 152° Southeast 293 337 9,700 -878 Descending FlightAware ADS-B
Tue 08:01:26 PM 9.2080 -79.6910 151° Southeast 288 331 9,500 -1,200 Descending FlightAware ADS-B
Tue 08:01:51 PM 9.1770 -79.6760 154° Southeast 276 318 8,900 -1,371 Descending FlightAware ADS-B
Tue 08:02:01 PM 9.1650 -79.6690 150° Southeast 276 318 8,700 -1,371 Descending FlightAware ADS-B
Tue 08:02:26 PM 9.1370 -79.6550 154° Southeast 274 315 8,100 -1,467 Descending FlightAware ADS-B
Tue 08:02:46 PM 9.1130 -79.6430 154° Southeast 276 318 7,600 -1,543 Descending FlightAware ADS-B
Tue 08:03:01 PM 9.0950 -79.6340 154° Southeast 273 314 7,200 -1,333 Descending FlightAware ADS-B
Tue 08:03:22 PM 9.0720 -79.6210 151° Southeast 277 319 6,800 -1,200 Descending FlightAware ADS-B
Tue 08:03:36 PM 9.0590 -79.6140 152° Southeast 275 316 6,500 -1,592 Descending FlightAware ADS-B
Tue 08:04:11 PM 9.0160 -79.5910 152° Southeast 272 313 5,500 -971 Descending FlightAware ADS-B
Tue 08:04:44 PM 8.9860 -79.5740 151° Southeast 271 312 5,400 -1,300 Descending FlightAware ADS-B
Tue 08:05:11 PM 8.9520 -79.5570 154° Southeast 271 312 4,200 -1,358 Descending FlightAware ADS-B
Tue 08:05:37 PM 8.9280 -79.5430 150° Southeast 271 312 4,200 -811 Level FlightAware ADS-B
Tue 08:08:00 PM 9.0714 -79.3835 31° Northeast  Level Estimated
Tue 08:08:16 PM 8.9800 -79.4310 31° Northeast 201 231 1,700  Level FlightAware ADS-B
Tue 08:08:42 PM 9.0000 -79.4200 29° Northeast 181 208 1,300 -1,043 Descending FlightAware ADS-B
Tue 08:09:02 PM 9.0140 -79.4120 29° Northeast 158 182 900 -857 Descending FlightAware ADS-B
Tue 08:09:17 PM 9.0230 -79.4070 29° Northeast 150 173 800 -667 Descending FlightAware ADS-B
Tue 08:09:38 PM 9.0360 -79.4000 28° Northeast 152 175 500 -857 Descending FlightAware ADS-B
Tue 08:09:52 PM 9.0450 -79.3940 33° Northeast 151 174 300 -857 Descending FlightAware ADS-B
Tue 08:10:17 PM 9.0590 -79.3860 29° Northeast 100 115 -720 Descending FlightAware ADS-B

Login

Don't have an account? Register now (free) for customized features, flight alerts, and more!